Time;durP1;ratioP1;P1;durP2;ratioP2;P2;SDS_P1;SDS_P2;PMS_P1;PMS_P2;Temp;Humidity;BMP_temperature;BMP_pressure;BME280_temperature;BME280_humidity;BME280_pressure;Samples;Min_cycle;Max_cycle;Signal;HPM_P1;HPM_P2
2021/12/10 00:01:43;;;;;;;8.00;7.20;;;4.40;99.90;;;;;;2612553;47;20431;-75
2021/12/10 00:04:11;;;;;;;12.83;9.50;;;4.30;99.90;;;;;;2612904;47;20413;-73
2021/12/10 00:06:43;;;;;;;8.00;7.20;;;4.20;99.90;;;;;;2614585;54;20423;-75
2021/12/10 00:09:28;;;;;;;9.80;8.40;;;4.00;99.90;;;;;;2611650;54;20446;-74
2021/12/10 00:12:06;;;;;;;11.70;8.77;;;4.00;99.90;;;;;;2614454;54;20447;-73
2021/12/10 00:14:34;;;;;;;9.60;7.63;;;4.00;99.90;;;;;;2612297;47;20474;-73
2021/12/10 00:17:02;;;;;;;13.47;8.37;;;4.00;99.90;;;;;;2613756;47;21029;-74
2021/12/10 00:19:35;;;;;;;11.50;8.53;;;3.90;99.90;;;;;;2610572;47;20426;-74
2021/12/10 00:22:08;;;;;;;11.77;9.83;;;3.80;99.90;;;;;;2613972;54;20404;-73
2021/12/10 00:24:40;;;;;;;11.60;9.13;;;3.80;99.90;;;;;;2613121;54;20430;-74
2021/12/10 00:27:08;;;;;;;15.60;9.50;;;3.90;99.90;;;;;;2612195;54;20464;-74
2021/12/10 00:29:36;;;;;;;11.03;7.87;;;3.90;99.90;;;;;;2613392;39;20827;-74
2021/12/10 00:32:08;;;;;;;12.57;10.00;;;3.80;99.90;;;;;;2613908;39;20844;-74
2021/12/10 00:34:45;;;;;;;10.43;8.60;;;3.70;99.90;;;;;;2611992;47;21112;-74
2021/12/10 00:37:15;;;;;;;10.83;8.57;;;3.80;99.90;;;;;;2610640;47;20431;-76
2021/12/10 00:40:03;;;;;;;14.67;10.37;;;3.90;99.90;;;;;;2611171;47;20412;-74
2021/12/10 00:42:33;;;;;;;14.43;12.00;;;3.80;99.90;;;;;;2611254;54;20403;-73
2021/12/10 00:45:02;;;;;;;15.27;10.13;;;3.90;99.90;;;;;;2612938;47;21137;-74
2021/12/10 00:47:29;;;;;;;22.80;10.10;;;3.90;99.90;;;;;;2613108;47;21008;-75
2021/12/10 00:49:56;;;;;;;13.40;10.40;;;4.00;99.90;;;;;;2612996;54;20428;-73
2021/12/10 00:52:23;;;;;;;10.30;8.10;;;3.90;99.90;;;;;;2611429;39;20820;-75
2021/12/10 00:54:49;;;;;;;16.60;11.83;;;4.00;99.90;;;;;;2612078;47;20428;-72
2021/12/10 00:57:15;;;;;;;13.77;10.87;;;4.00;99.90;;;;;;2611395;47;20416;-73
2021/12/10 00:59:43;;;;;;;13.60;10.37;;;3.90;99.90;;;;;;2612407;39;20490;-74
2021/12/10 01:02:12;;;;;;;12.77;9.47;;;4.00;99.90;;;;;;2614508;54;20464;-73
2021/12/10 01:04:41;;;;;;;13.67;10.83;;;3.90;99.90;;;;;;2612449;54;20418;-74
2021/12/10 01:07:10;;;;;;;17.40;11.63;;;4.00;99.90;;;;;;2612299;54;21365;-74
2021/12/10 01:09:41;;;;;;;9.07;7.03;;;4.10;99.90;;;;;;2610772;46;20443;-74
2021/12/10 01:12:16;;;;;;;13.43;9.60;;;4.20;99.90;;;;;;2613679;54;20419;-74
2021/12/10 01:15:22;;;;;;;10.03;8.93;;;4.30;99.90;;;;;;2611635;47;20474;-74
2021/12/10 01:28:48;;;;;;;9.03;8.13;;;4.50;99.90;;;;;;2611135;47;20527;-74
2021/12/10 01:31:14;;;;;;;8.00;7.10;;;4.50;99.90;;;;;;2613275;54;20511;-72
2021/12/10 01:33:43;;;;;;;12.87;8.93;;;4.60;99.90;;;;;;2613192;47;20987;-72
2021/12/10 01:36:10;;;;;;;9.40;8.10;;;4.70;99.90;;;;;;2614347;54;20419;-72
2021/12/10 01:38:43;;;;;;;12.90;8.03;;;4.60;99.90;;;;;;2611186;47;20415;-73
2021/12/10 01:41:13;;;;;;;11.90;8.87;;;4.60;99.90;;;;;;2612847;54;21153;-73
2021/12/10 01:43:40;;;;;;;14.73;8.10;;;4.50;99.90;;;;;;2611720;54;20422;-73
2021/12/10 01:46:12;;;;;;;10.50;8.20;;;4.60;99.90;;;;;;2611081;47;20528;-75
2021/12/10 01:48:43;;;;;;;13.03;9.30;;;4.60;99.90;;;;;;2614072;39;20823;-73
2021/12/10 01:51:12;;;;;;;12.80;8.30;;;4.60;99.90;;;;;;2612661;54;20397;-73
2021/12/10 01:53:41;;;;;;;12.80;7.43;;;4.60;99.90;;;;;;2613194;47;20980;-73
2021/12/10 01:56:14;;;;;;;8.50;6.73;;;4.60;99.90;;;;;;2610553;47;20416;-76
2021/12/10 01:58:41;;;;;;;12.43;8.30;;;4.60;99.90;;;;;;2611900;47;20999;-72
2021/12/10 02:01:15;;;;;;;12.10;9.27;;;4.40;99.90;;;;;;2613384;47;20415;-74
2021/12/10 02:03:41;;;;;;;9.80;7.60;;;4.30;99.90;;;;;;2612839;54;20527;-73
2021/12/10 02:06:08;;;;;;;8.47;7.57;;;4.20;99.90;;;;;;2611719;54;20948;-73
2021/12/10 02:08:35;;;;;;;8.93;6.97;;;4.20;99.90;;;;;;2613969;54;20422;-74
2021/12/10 02:11:02;;;;;;;9.00;6.87;;;4.10;99.90;;;;;;2613092;54;20433;-73
2021/12/10 02:13:28;;;;;;;19.67;8.87;;;4.10;99.90;;;;;;2614176;54;20476;-74
2021/12/10 02:15:54;;;;;;;7.90;6.40;;;4.10;99.90;;;;;;2610889;47;20444;-73
2021/12/10 02:18:21;;;;;;;8.27;7.10;;;4.10;99.90;;;;;;2612572;54;20408;-73
2021/12/10 02:21:02;;;;;;;11.77;8.47;;;4.00;99.90;;;;;;2613468;54;20412;-73
2021/12/10 02:23:36;;;;;;;9.70;8.17;;;4.00;99.90;;;;;;2612095;54;20472;-76
2021/12/10 02:26:05;;;;;;;11.77;8.03;;;3.90;99.90;;;;;;2612862;54;20419;-76
2021/12/10 02:28:31;;;;;;;8.97;7.43;;;4.00;99.90;;;;;;2612528;54;20431;-74
2021/12/10 02:30:59;;;;;;;11.17;8.80;;;4.10;99.90;;;;;;2611908;54;20960;-73
2021/12/10 02:33:25;;;;;;;10.97;8.97;;;4.00;99.90;;;;;;2612844;54;20440;-73
2021/12/10 02:35:51;;;;;;;9.67;8.30;;;3.90;99.90;;;;;;2611904;54;20422;-73
2021/12/10 02:38:19;;;;;;;10.03;8.93;;;4.00;99.90;;;;;;2612814;54;20420;-73
2021/12/10 02:40:48;;;;;;;10.47;7.30;;;3.90;99.90;;;;;;2613071;47;20528;-73
2021/12/10 02:43:16;;;;;;;14.70;9.50;;;4.10;99.90;;;;;;2611527;39;20821;-74
2021/12/10 02:45:44;;;;;;;10.77;8.43;;;4.10;99.90;;;;;;2613226;39;20831;-74
2021/12/10 02:48:10;;;;;;;15.50;9.63;;;3.90;99.90;;;;;;2612672;54;20427;-74
2021/12/10 02:50:37;;;;;;;10.83;9.00;;;4.00;99.90;;;;;;2613759;39;20824;-74
2021/12/10 02:53:07;;;;;;;11.27;8.67;;;4.00;99.90;;;;;;2614798;31;20830;-73
2021/12/10 02:55:34;;;;;;;13.67;7.33;;;4.10;99.90;;;;;;2612079;39;20772;-73
2021/12/10 02:58:05;;;;;;;9.20;7.70;;;4.00;99.90;;;;;;2612107;54;20424;-74
2021/12/10 03:00:38;;;;;;;9.73;6.67;;;4.00;99.90;;;;;;2612786;54;20412;-73
2021/12/10 03:03:04;;;;;;;8.30;7.27;;;3.80;99.90;;;;;;2612250;54;20515;-74
2021/12/10 03:05:30;;;;;;;7.73;6.43;;;4.10;99.90;;;;;;2611446;54;20447;-73
2021/12/10 03:07:56;;;;;;;8.33;7.43;;;3.90;99.90;;;;;;2613362;54;20960;-72
2021/12/10 03:10:27;;;;;;;6.90;6.23;;;4.10;99.90;;;;;;2613034;54;20398;-73
2021/12/10 03:12:53;;;;;;;6.40;5.90;;;4.00;99.90;;;;;;2614487;47;20431;-73
2021/12/10 03:15:22;;;;;;;9.30;7.47;;;3.90;99.90;;;;;;2611405;54;20579;-73
2021/12/10 03:17:49;;;;;;;11.27;8.03;;;3.90;99.90;;;;;;2612310;54;20400;-73
2021/12/10 03:20:28;;;;;;;6.50;5.90;;;3.90;99.90;;;;;;2612671;54;20604;-73
2021/12/10 03:22:55;;;;;;;13.47;6.00;;;3.70;99.90;;;;;;2611273;47;20427;-74
2021/12/10 03:25:21;;;;;;;9.07;7.03;;;3.70;99.90;;;;;;2613034;54;20415;-73
2021/12/10 03:27:48;;;;;;;10.37;9.37;;;3.70;99.90;;;;;;2613629;54;22400;-74
2021/12/10 03:30:23;;;;;;;7.33;6.30;;;3.80;99.90;;;;;;2613660;39;20835;-72
2021/12/10 03:32:49;;;;;;;6.40;5.80;;;3.80;99.90;;;;;;2612245;54;20423;-74
2021/12/10 03:35:23;;;;;;;12.23;6.33;;;3.80;99.90;;;;;;2612277;47;20401;-73
2021/12/10 03:37:49;;;;;;;7.27;6.57;;;3.90;99.90;;;;;;2613865;54;20490;-74
2021/12/10 03:40:17;;;;;;;10.20;6.70;;;3.90;99.90;;;;;;2613568;47;20427;-74
2021/12/10 03:42:45;;;;;;;9.73;5.60;;;3.90;99.90;;;;;;2613538;54;20415;-73
2021/12/10 03:45:12;;;;;;;7.97;5.73;;;3.90;99.90;;;;;;2612877;54;20499;-74
2021/12/10 03:47:38;;;;;;;10.73;5.60;;;3.90;99.90;;;;;;2613892;39;20857;-73
2021/12/10 03:50:07;;;;;;;6.97;5.93;;;4.00;99.90;;;;;;2611802;54;20411;-75
2021/12/10 03:52:34;;;;;;;12.30;6.00;;;3.90;99.90;;;;;;2613897;47;20409;-73
2021/12/10 03:55:01;;;;;;;6.43;5.83;;;3.90;99.90;;;;;;2614190;54;20461;-73
2021/12/10 03:57:27;;;;;;;6.53;5.50;;;3.80;99.90;;;;;;2611833;54;20424;-73
2021/12/10 03:59:53;;;;;;;5.20;4.80;;;3.60;99.90;;;;;;2613199;39;20831;-73
2021/12/10 04:02:19;;;;;;;14.23;5.40;;;3.70;99.90;;;;;;2612316;47;20431;-73
2021/12/10 04:04:49;;;;;;;8.40;6.00;;;3.70;99.90;;;;;;2613478;54;20418;-73
2021/12/10 04:07:19;;;;;;;8.00;5.30;;;3.70;99.90;;;;;;2614047;31;20865;-76
2021/12/10 04:09:45;;;;;;;10.13;5.63;;;3.90;99.90;;;;;;2612492;54;20427;-74
2021/12/10 04:12:11;;;;;;;5.10;4.70;;;3.70;99.90;;;;;;2613899;54;20399;-76
2021/12/10 04:14:38;;;;;;;8.33;5.83;;;3.80;99.90;;;;;;2611868;54;20396;-75
2021/12/10 04:17:05;;;;;;;8.53;5.30;;;3.80;99.90;;;;;;2611968;47;20416;-77
2021/12/10 04:19:33;;;;;;;8.43;5.90;;;3.50;99.90;;;;;;2613305;54;20486;-74
2021/12/10 04:22:00;;;;;;;7.87;4.80;;;3.60;99.90;;;;;;2613869;54;20414;-73
2021/12/10 04:24:30;;;;;;;6.63;4.80;;;3.70;99.90;;;;;;2613829;39;20771;-74
2021/12/10 04:26:57;;;;;;;8.53;5.83;;;3.70;99.90;;;;;;2613528;54;20416;-73
2021/12/10 04:29:23;;;;;;;14.83;6.90;;;3.60;99.90;;;;;;2611657;54;20468;-73
2021/12/10 04:31:53;;;;;;;6.77;5.60;;;3.50;99.90;;;;;;2613416;54;21016;-73
2021/12/10 04:34:21;;;;;;;5.13;4.63;;;3.50;99.90;;;;;;2613131;54;20400;-74
2021/12/10 04:36:49;;;;;;;6.47;4.43;;;3.40;99.90;;;;;;2613517;54;20420;-73
2021/12/10 04:39:15;;;;;;;5.70;4.90;;;3.50;99.90;;;;;;2611305;54;20943;-74
2021/12/10 04:41:41;;;;;;;5.13;4.60;;;3.60;99.90;;;;;;2614730;54;20972;-73
2021/12/10 04:44:07;;;;;;;6.07;4.37;;;3.50;99.90;;;;;;2612942;54;20414;-74
2021/12/10 04:46:34;;;;;;;5.83;4.70;;;3.60;99.90;;;;;;2612795;54;20397;-73
2021/12/10 04:49:10;;;;;;;5.80;4.37;;;3.50;99.90;;;;;;2611547;47;20416;-74
2021/12/10 04:51:42;;;;;;;7.30;5.53;;;3.60;99.90;;;;;;2612163;54;20410;-74
2021/12/10 04:54:10;;;;;;;5.25;4.40;;;3.80;99.90;;;;;;2613910;46;20412;-75
2021/12/10 04:56:37;;;;;;;4.90;4.50;;;3.70;99.90;;;;;;2611087;47;20446;-74
2021/12/10 04:59:06;;;;;;;7.73;4.70;;;3.90;99.90;;;;;;2612289;54;20438;-73
2021/12/10 05:01:34;;;;;;;5.43;4.20;;;3.80;99.90;;;;;;2614199;54;20424;-74
2021/12/10 05:04:01;;;;;;;7.60;4.07;;;3.70;99.90;;;;;;2612953;54;20403;-74
2021/12/10 05:06:26;;;;;;;11.13;5.40;;;3.70;99.90;;;;;;2613359;54;20498;-77
2021/12/10 05:08:53;;;;;;;5.17;4.20;;;3.70;99.90;;;;;;2610972;54;21019;-73
2021/12/10 05:11:19;;;;;;;4.43;4.00;;;3.60;99.90;;;;;;2612541;54;20541;-73
2021/12/10 05:13:46;;;;;;;5.03;3.80;;;3.70;99.90;;;;;;2612709;39;20791;-73
2021/12/10 05:16:13;;;;;;;5.27;4.70;;;3.90;99.90;;;;;;2613323;54;20447;-73
2021/12/10 05:18:45;;;;;;;4.17;3.77;;;3.90;99.90;;;;;;2611181;54;20477;-77
2021/12/10 05:21:13;;;;;;;7.37;4.73;;;3.80;99.90;;;;;;2612826;54;20574;-77
2021/12/10 05:23:39;;;;;;;4.60;4.27;;;3.80;99.90;;;;;;2612694;54;21174;-74
2021/12/10 05:26:07;;;;;;;4.80;3.67;;;3.60;99.90;;;;;;2614027;54;20402;-75
2021/12/10 05:28:34;;;;;;;8.23;4.40;;;3.50;99.90;;;;;;2613064;54;20448;-74
2021/12/10 05:31:00;;;;;;;5.43;3.63;;;3.70;99.90;;;;;;2613430;54;20427;-76
2021/12/10 05:33:28;;;;;;;4.17;3.77;;;3.60;99.90;;;;;;2611266;54;20391;-76
2021/12/10 05:35:54;;;;;;;8.63;4.03;;;3.60;99.90;;;;;;2611553;47;20399;-74
2021/12/10 05:38:22;;;;;;;7.30;3.97;;;3.70;99.90;;;;;;2612305;54;20399;-74
2021/12/10 05:40:51;;;;;;;8.10;3.87;;;3.80;99.90;;;;;;2612844;54;20417;-73
2021/12/10 05:43:17;;;;;;;4.43;3.70;;;3.80;99.90;;;;;;2612983;47;20539;-74
2021/12/10 05:45:44;;;;;;;4.30;3.90;;;3.80;99.90;;;;;;2612045;54;20416;-76
2021/12/10 05:48:10;;;;;;;4.93;3.43;;;3.90;99.90;;;;;;2610441;54;20403;-74
2021/12/10 05:50:36;;;;;;;3.77;2.90;;;3.90;99.90;;;;;;2612720;54;20409;-75
2021/12/10 05:53:05;;;;;;;4.07;3.70;;;3.90;99.90;;;;;;2611026;47;20977;-73
2021/12/10 05:55:31;;;;;;;6.57;3.53;;;4.00;99.90;;;;;;2613722;39;20607;-73
2021/12/10 05:57:58;;;;;;;5.60;3.73;;;4.10;99.90;;;;;;2612200;54;20424;-76
2021/12/10 06:00:31;;;;;;;6.83;3.60;;;3.90;99.90;;;;;;2610698;47;20424;-74
2021/12/10 06:02:58;;;;;;;8.20;3.90;;;3.80;99.90;;;;;;2610490;54;20447;-74
2021/12/10 06:05:25;;;;;;;8.30;4.83;;;3.90;99.90;;;;;;2611636;47;20411;-73
2021/12/10 06:07:51;;;;;;;5.57;4.27;;;3.80;99.90;;;;;;2614782;54;20382;-74
2021/12/10 06:10:21;;;;;;;11.87;4.87;;;3.80;99.90;;;;;;2612952;47;20443;-74
2021/12/10 06:12:48;;;;;;;12.97;4.20;;;3.80;99.90;;;;;;2610996;47;21318;-74
2021/12/10 06:15:17;;;;;;;9.50;4.27;;;3.90;99.90;;;;;;2612689;46;21071;-73
2021/12/10 06:17:44;;;;;;;5.47;3.93;;;4.00;99.90;;;;;;2613861;54;20943;-74
2021/12/10 06:20:14;;;;;;;8.23;3.90;;;4.10;99.90;;;;;;2613622;47;20984;-74
2021/12/10 06:22:40;;;;;;;7.30;3.27;;;3.90;99.90;;;;;;2613375;54;20426;-76
2021/12/10 06:25:07;;;;;;;5.90;3.40;;;4.00;99.90;;;;;;2612386;54;20415;-73
2021/12/10 06:27:34;;;;;;;10.20;4.50;;;4.10;99.90;;;;;;2613781;54;20407;-73
2021/12/10 06:30:01;;;;;;;8.13;4.43;;;4.00;99.90;;;;;;2613188;54;20422;-76
2021/12/10 06:32:27;;;;;;;12.33;4.23;;;3.90;99.90;;;;;;2613888;54;20400;-75
2021/12/10 06:34:54;;;;;;;4.40;4.00;;;4.00;99.90;;;;;;2612990;54;20956;-73
2021/12/10 06:37:21;;;;;;;3.70;3.03;;;4.00;99.90;;;;;;2614283;47;20427;-74
2021/12/10 06:39:56;;;;;;;11.03;3.63;;;3.90;99.90;;;;;;2613020;54;20415;-73
2021/12/10 06:42:22;;;;;;;5.60;3.90;;;4.00;99.90;;;;;;2614476;47;20439;-73
2021/12/10 06:44:50;;;;;;;5.90;3.60;;;3.90;99.90;;;;;;2613170;54;20404;-73
2021/12/10 06:47:16;;;;;;;6.33;4.20;;;3.90;99.90;;;;;;2613359;51;20419;-74
2021/12/10 06:49:42;;;;;;;7.97;3.47;;;3.90;99.90;;;;;;2613293;54;20418;-73
2021/12/10 06:52:08;;;;;;;5.90;4.13;;;4.00;99.90;;;;;;2615503;54;20399;-74
2021/12/10 06:54:35;;;;;;;4.10;3.67;;;3.90;99.90;;;;;;2614079;54;20456;-75
2021/12/10 06:57:01;;;;;;;7.57;4.40;;;3.90;99.90;;;;;;2612075;54;20411;-73
2021/12/10 06:59:27;;;;;;;5.37;3.37;;;3.90;99.90;;;;;;2610656;54;20527;-73
2021/12/10 07:01:53;;;;;;;5.90;4.13;;;3.90;99.90;;;;;;2611598;54;20411;-74
2021/12/10 07:04:21;;;;;;;4.93;3.47;;;3.80;99.90;;;;;;2609359;54;22137;-76
2021/12/10 07:06:48;;;;;;;9.13;3.73;;;3.80;99.90;;;;;;2613240;54;21284;-74
2021/12/10 07:09:18;;;;;;;8.73;4.13;;;3.90;99.90;;;;;;2611873;39;21847;-74
2021/12/10 07:11:45;;;;;;;4.63;3.60;;;3.90;99.90;;;;;;2614071;54;22219;-73
2021/12/10 07:14:11;;;;;;;7.70;3.40;;;4.00;99.90;;;;;;2614627;39;20760;-76
2021/12/10 07:16:37;;;;;;;11.13;3.70;;;4.00;99.90;;;;;;2614254;54;20613;-74
2021/12/10 07:19:05;;;;;;;4.50;3.40;;;3.90;99.90;;;;;;2612244;54;20419;-74
2021/12/10 07:21:32;;;;;;;8.00;3.67;;;4.00;99.90;;;;;;2611143;47;20853;-74
2021/12/10 07:24:01;;;;;;;5.67;3.80;;;4.10;99.90;;;;;;2614145;54;20423;-75
2021/12/10 07:26:28;;;;;;;4.57;3.40;;;4.10;99.90;;;;;;2614161;47;20407;-75
2021/12/10 07:28:55;;;;;;;7.03;3.63;;;4.10;99.90;;;;;;2615305;39;20830;-74
2021/12/10 07:31:21;;;;;;;4.67;3.60;;;4.00;99.90;;;;;;2615004;54;20515;-77
2021/12/10 07:33:47;;;;;;;4.07;3.37;;;3.90;99.90;;;;;;2610473;47;20415;-74
2021/12/10 07:36:15;;;;;;;3.00;2.57;;;3.90;99.90;;;;;;2608699;54;20452;-76
2021/12/10 07:38:41;;;;;;;9.07;4.17;;;4.00;99.90;;;;;;2609464;54;20436;-78
2021/12/10 07:41:09;;;;;;;4.43;3.20;;;4.00;99.90;;;;;;2608100;54;20440;-77
2021/12/10 07:43:36;;;;;;;12.50;3.40;;;4.00;99.90;;;;;;2665057;36;20477;-77
2021/12/10 07:46:04;;;;;;;6.93;3.87;;;4.10;99.90;;;;;;2607304;51;20400;-74
2021/12/10 07:48:34;;;;;;;3.73;2.97;;;4.30;99.90;;;;;;2609292;54;20415;-73
2021/12/10 07:51:09;;;;;;;3.00;2.30;;;4.10;99.90;;;;;;2602668;54;20406;-78
2021/12/10 07:53:36;;;;;;;15.07;3.73;;;4.10;99.90;;;;;;2608443;47;20435;-74
2021/12/10 07:56:06;;;;;;;5.73;3.67;;;4.20;99.90;;;;;;2610789;46;20957;-76
2021/12/10 07:58:33;;;;;;;15.50;3.90;;;4.20;99.90;;;;;;2608578;54;21017;-74
2021/12/10 08:01:02;;;;;;;3.50;3.20;;;4.30;99.90;;;;;;2608726;47;20442;-75
2021/12/10 08:03:28;;;;;;;13.13;3.50;;;4.20;99.90;;;;;;2610970;47;22112;-75
2021/12/10 08:05:54;;;;;;;6.37;3.90;;;4.30;99.90;;;;;;2611732;54;20404;-76
2021/12/10 08:08:20;;;;;;;5.80;3.43;;;4.30;99.90;;;;;;2612110;47;20174;-76
2021/12/10 08:10:47;;;;;;;6.63;3.00;;;4.40;99.90;;;;;;2613560;54;20984;-77
2021/12/10 08:13:15;;;;;;;5.93;3.03;;;4.60;99.90;;;;;;2613712;39;20808;-76
2021/12/10 08:15:41;;;;;;;6.50;2.77;;;4.30;99.90;;;;;;2613215;47;20453;-77
2021/12/10 08:18:08;;;;;;;4.30;3.27;;;4.70;99.90;;;;;;2612683;39;20813;-77
2021/12/10 08:20:37;;;;;;;6.13;3.63;;;4.80;99.90;;;;;;2612079;39;20978;-76
2021/12/10 08:23:04;;;;;;;14.00;3.33;;;5.40;99.90;;;;;;2613129;46;20953;-76
2021/12/10 08:25:30;;;;;;;6.27;3.60;;;5.60;99.90;;;;;;2613306;54;20407;-75
2021/12/10 08:27:57;;;;;;;5.10;3.03;;;5.10;99.90;;;;;;2612497;47;20563;-76
2021/12/10 08:30:27;;;;;;;9.27;3.00;;;5.20;99.90;;;;;;2612653;46;21263;-75
2021/12/10 08:32:55;;;;;;;6.03;3.60;;;5.00;99.90;;;;;;2611237;54;20556;-77
2021/12/10 08:35:26;;;;;;;6.50;2.53;;;5.10;99.90;;;;;;2612828;54;20418;-78
2021/12/10 08:37:54;;;;;;;8.00;2.90;;;5.30;99.90;;;;;;2613591;46;20468;-76
2021/12/10 08:40:26;;;;;;;8.83;3.10;;;5.10;99.90;;;;;;2612446;54;20559;-76
2021/12/10 08:42:53;;;;;;;16.20;2.87;;;5.20;99.90;;;;;;2611018;54;20510;-76
2021/12/10 08:45:21;;;;;;;6.83;3.40;;;5.30;99.90;;;;;;2612837;39;20776;-78
2021/12/10 08:47:48;;;;;;;5.43;2.80;;;5.30;99.90;;;;;;2614083;47;20992;-76
2021/12/10 08:50:18;;;;;;;6.27;2.37;;;5.40;99.90;;;;;;2613170;51;21057;-76
2021/12/10 08:52:44;;;;;;;3.73;3.40;;;5.10;99.90;;;;;;2612928;39;20807;-75
2021/12/10 08:55:11;;;;;;;2.33;2.13;;;5.20;99.90;;;;;;2612572;47;20415;-74
2021/12/10 08:57:38;;;;;;;2.63;2.13;;;5.40;99.90;;;;;;2611471;54;21626;-76
2021/12/10 09:00:07;;;;;;;5.27;3.20;;;5.30;99.90;;;;;;2611986;54;20419;-76
2021/12/10 09:02:34;;;;;;;4.27;3.30;;;5.60;99.90;;;;;;2612869;54;20524;-75
2021/12/10 09:05:00;;;;;;;5.30;2.43;;;5.90;99.90;;;;;;2611727;54;20438;-75
2021/12/10 09:07:27;;;;;;;2.23;2.03;;;6.10;99.90;;;;;;2612351;54;20535;-76
2021/12/10 09:09:53;;;;;;;3.30;3.00;;;6.10;99.90;;;;;;2611271;54;20415;-77
2021/12/10 09:12:25;;;;;;;2.60;2.03;;;5.90;99.90;;;;;;2610655;47;20423;-75
2021/12/10 09:14:54;;;;;;;4.40;2.77;;;6.10;99.90;;;;;;2611402;47;20189;-76
2021/12/10 09:17:28;;;;;;;4.57;2.57;;;6.20;99.90;;;;;;2611061;47;20472;-75
2021/12/10 09:19:58;;;;;;;3.47;3.10;;;6.20;99.90;;;;;;2611460;54;20415;-75
2021/12/10 09:22:25;;;;;;;2.00;1.80;;;6.60;99.90;;;;;;2610885;51;20460;-77
2021/12/10 09:24:54;;;;;;;2.53;2.30;;;6.60;99.90;;;;;;2611779;54;20427;-77
2021/12/10 09:27:23;;;;;;;4.07;3.77;;;6.60;99.90;;;;;;2610545;54;20419;-78
2021/12/10 09:29:52;;;;;;;5.23;2.97;;;7.10;99.90;;;;;;2611684;54;20423;-76
2021/12/10 09:32:20;;;;;;;5.20;3.13;;;7.30;99.90;;;;;;2612353;46;20411;-75
2021/12/10 09:34:48;;;;;;;8.10;4.37;;;7.70;99.90;;;;;;2612128;54;21039;-77
2021/12/10 09:37:15;;;;;;;3.97;2.57;;;7.70;99.90;;;;;;2612227;47;20541;-76
2021/12/10 09:39:41;;;;;;;12.23;2.80;;;8.00;99.90;;;;;;2611758;54;20979;-77
2021/12/10 09:42:09;;;;;;;4.23;2.30;;;7.90;98.10;;;;;;2612174;47;20427;-74
2021/12/10 09:44:36;;;;;;;9.90;3.37;;;8.40;98.70;;;;;;2610872;54;20414;-75
2021/12/10 09:47:04;;;;;;;3.93;2.33;;;8.90;97.80;;;;;;2611824;54;20407;-75
2021/12/10 09:49:31;;;;;;;3.53;2.23;;;9.60;91.80;;;;;;2610999;54;20423;-77
2021/12/10 09:52:02;;;;;;;2.57;2.17;;;9.10;93.90;;;;;;2611281;47;20450;-78
2021/12/10 09:54:33;;;;;;;6.37;3.00;;;9.10;92.40;;;;;;2612756;54;20511;-76
2021/12/10 09:57:10;;;;;;;3.03;2.50;;;9.00;92.40;;;;;;2611792;54;20963;-76
2021/12/10 09:59:42;;;;;;;2.60;2.00;;;9.00;92.30;;;;;;2611740;47;20466;-76
2021/12/10 10:02:11;;;;;;;3.53;3.03;;;9.10;91.10;;;;;;2609945;54;20415;-76
2021/12/10 10:04:40;;;;;;;5.67;3.00;;;8.70;92.80;;;;;;2611632;47;20459;-74
2021/12/10 10:07:12;;;;;;;4.97;3.03;;;8.80;94.00;;;;;;2610897;51;20416;-75
2021/12/10 10:09:41;;;;;;;6.23;3.63;;;9.00;92.40;;;;;;2612575;54;20423;-76
2021/12/10 10:12:11;;;;;;;7.33;3.10;;;8.80;91.80;;;;;;2611280;54;20963;-74
2021/12/10 10:14:39;;;;;;;8.53;2.43;;;8.70;93.20;;;;;;2612027;54;20603;-75
2021/12/10 10:17:07;;;;;;;3.37;2.60;;;9.00;91.80;;;;;;2611120;54;20439;-76
2021/12/10 10:19:34;;;;;;;3.53;2.13;;;8.40;90.20;;;;;;2611275;54;20969;-75
2021/12/10 10:22:03;;;;;;;6.60;2.43;;;8.60;92.80;;;;;;2611696;54;20395;-78
2021/12/10 10:24:30;;;;;;;4.67;2.20;;;9.00;91.20;;;;;;2609482;54;21013;-75
2021/12/10 10:27:10;;;;;;;6.07;4.07;;;9.60;87.00;;;;;;2611465;39;20820;-75
2021/12/10 10:29:41;;;;;;;8.53;3.10;;;9.60;84.70;;;;;;2610843;47;20463;-78
2021/12/10 10:32:15;;;;;;;2.60;2.40;;;8.90;87.80;;;;;;2611765;47;20431;-77
2021/12/10 10:34:47;;;;;;;8.70;3.00;;;8.70;90.80;;;;;;2610447;39;20647;-77
2021/12/10 10:37:13;;;;;;;6.83;3.00;;;9.40;88.80;;;;;;2609632;47;20972;-77
2021/12/10 10:39:42;;;;;;;4.40;2.73;;;8.80;90.70;;;;;;2610464;54;20422;-76
2021/12/10 10:42:14;;;;;;;5.10;2.53;;;8.10;91.60;;;;;;2609712;39;20820;-75
2021/12/10 10:44:42;;;;;;;3.50;3.07;;;7.80;93.80;;;;;;2610275;47;21010;-76
2021/12/10 10:47:08;;;;;;;3.17;2.20;;;7.70;96.10;;;;;;2612131;54;20408;-77
2021/12/10 10:49:41;;;;;;;3.07;2.37;;;8.30;92.10;;;;;;2610730;54;20439;-75
2021/12/10 10:52:24;;;;;;;5.10;3.27;;;8.50;90.40;;;;;;2610303;47;20414;-75
2021/12/10 10:54:54;;;;;;;8.67;3.00;;;8.70;90.00;;;;;;2610556;39;20803;-76
2021/12/10 10:57:26;;;;;;;3.53;2.20;;;8.30;88.90;;;;;;2609013;54;20410;-76
2021/12/10 11:00:01;;;;;;;7.03;2.40;;;8.10;91.10;;;;;;2610520;47;20973;-78
2021/12/10 11:02:40;;;;;;;2.67;1.63;;;7.80;90.80;;;;;;2611733;54;20415;-77
2021/12/10 11:05:11;;;;;;;4.67;2.50;;;7.60;93.30;;;;;;2610513;47;20451;-75
2021/12/10 11:07:51;;;;;;;2.10;1.87;;;7.60;93.00;;;;;;2608918;54;20404;-76
2021/12/10 11:10:36;;;;;;;6.33;3.07;;;7.40;92.80;;;;;;2610938;54;20955;-78
2021/12/10 11:13:17;;;;;;;5.10;2.73;;;7.60;93.40;;;;;;2609739;47;20539;-76
2021/12/10 11:15:57;;;;;;;4.50;2.70;;;7.70;92.70;;;;;;2611510;47;20499;-77
2021/12/10 11:18:24;;;;;;;4.23;2.33;;;7.70;93.50;;;;;;2610239;47;20542;-76
2021/12/10 11:20:50;;;;;;;3.17;2.30;;;8.10;91.10;;;;;;2614671;47;20415;-75
2021/12/10 11:23:23;;;;;;;5.23;2.67;;;8.00;85.20;;;;;;2610281;47;20414;-74
2021/12/10 11:25:50;;;;;;;3.30;1.90;;;7.60;92.60;;;;;;2610165;54;20435;-75
2021/12/10 11:28:21;;;;;;;3.40;2.90;;;7.80;92.20;;;;;;2610805;54;20467;-76
2021/12/10 11:30:51;;;;;;;2.67;2.47;;;8.40;88.10;;;;;;2611333;39;20912;-76
2021/12/10 11:33:20;;;;;;;5.97;2.90;;;8.80;84.70;;;;;;2610700;47;20443;-76
2021/12/10 11:36:17;;;;;;;5.20;2.20;;;8.80;81.40;;;;;;2612274;39;20806;-76
2021/12/10 11:38:46;;;;;;;4.17;2.10;;;8.50;82.40;;;;;;2610326;47;21194;-76
2021/12/10 11:41:17;;;;;;;7.37;2.80;;;8.00;87.00;;;;;;2612481;39;20848;-75
2021/12/10 11:49:58;;;;;;;4.17;2.43;;;7.80;84.00;;;;;;2611974;47;20427;-77
2021/12/10 11:52:25;;;;;;;5.63;2.10;;;7.90;83.10;;;;;;2612274;54;20990;-76
2021/12/10 11:54:59;;;;;;;3.93;2.87;;;7.90;86.50;;;;;;2609740;47;20427;-74
2021/12/10 11:57:38;;;;;;;2.60;2.37;;;7.90;86.20;;;;;;2609791;54;20426;-75
2021/12/10 12:00:17;;;;;;;4.10;2.47;;;8.10;85.80;;;;;;2611125;54;20408;-75
2021/12/10 12:02:47;;;;;;;2.70;2.03;;;8.70;85.00;;;;;;2612180;54;20479;-76
2021/12/10 12:05:17;;;;;;;5.03;2.30;;;8.70;75.20;;;;;;2610389;54;20420;-76
2021/12/10 12:07:55;;;;;;;6.83;2.43;;;8.80;81.40;;;;;;2611101;47;20973;-77
2021/12/10 12:10:32;;;;;;;4.27;2.47;;;9.00;78.90;;;;;;2611823;46;20461;-75
2021/12/10 12:15:58;;;;;;;5.83;2.50;;;8.40;79.00;;;;;;2610217;54;20998;-78
2021/12/10 12:18:31;;;;;;;2.90;2.37;;;8.60;80.50;;;;;;2612866;47;20441;-75
2021/12/10 12:21:00;;;;;;;8.67;2.33;;;8.40;77.20;;;;;;2612241;54;20399;-75
2021/12/10 12:26:23;;;;;;;5.30;2.87;;;8.70;78.70;;;;;;2610859;54;20431;-75
2021/12/10 12:28:55;;;;;;;7.50;3.20;;;8.50;79.20;;;;;;2611919;54;20438;-76
2021/12/10 12:31:26;;;;;;;2.40;2.03;;;8.20;83.30;;;;;;2612524;47;20963;-75
2021/12/10 12:34:00;;;;;;;2.67;2.17;;;7.90;80.10;;;;;;2611791;47;20959;-76
2021/12/10 12:37:00;;;;;;;4.60;2.40;;;7.90;80.50;;;;;;2611347;54;20416;-76
2021/12/10 12:39:39;;;;;;;4.10;2.43;;;7.70;80.50;;;;;;2611754;39;21147;-76
2021/12/10 12:42:22;;;;;;;4.43;2.83;;;7.00;87.10;;;;;;2612520;39;20766;-76
2021/12/10 12:45:00;;;;;;;3.03;2.13;;;7.10;88.10;;;;;;2630188;36;20478;-78
2021/12/10 12:47:32;;;;;;;6.97;2.37;;;7.30;86.30;;;;;;2611447;47;20415;-77
2021/12/10 12:50:10;;;;;;;12.13;2.97;;;7.40;82.10;;;;;;2612908;47;20573;-77
2021/12/10 12:52:43;;;;;;;3.10;2.60;;;7.50;82.40;;;;;;2613504;54;21021;-77
2021/12/10 12:55:50;;;;;;;2.43;2.23;;;7.30;86.30;;;;;;2612184;47;20963;-76
2021/12/10 12:58:31;;;;;;;3.93;2.90;;;7.30;86.00;;;;;;2610970;47;20423;-76
2021/12/10 13:01:01;;;;;;;8.03;2.60;;;7.10;87.80;;;;;;2611204;54;20418;-77
2021/12/10 13:03:33;;;;;;;3.03;2.73;;;7.00;87.00;;;;;;2612053;46;20422;-76
2021/12/10 13:06:23;;;;;;;4.43;2.77;;;6.90;86.70;;;;;;2612249;54;20395;-76
2021/12/10 13:08:57;;;;;;;6.27;3.00;;;7.10;87.60;;;;;;2612480;47;20507;-75
2021/12/10 13:11:31;;;;;;;4.33;2.27;;;7.20;84.80;;;;;;2611668;47;21007;-78
2021/12/10 13:14:13;;;;;;;2.90;2.67;;;7.20;84.90;;;;;;2611509;47;20985;-75
2021/12/10 13:16:49;;;;;;;6.57;2.90;;;7.40;83.80;;;;;;2611784;54;20952;-75
2021/12/10 13:19:25;;;;;;;3.50;3.20;;;7.50;86.80;;;;;;2611480;54;20399;-76
2021/12/10 13:22:00;;;;;;;5.13;2.60;;;7.40;85.50;;;;;;2612138;47;20415;-75
2021/12/10 13:24:27;;;;;;;4.67;2.10;;;7.20;84.90;;;;;;2610972;46;20414;-75
2021/12/10 13:26:56;;;;;;;2.97;2.67;;;7.30;83.70;;;;;;2611585;47;20430;-76
2021/12/10 13:29:22;;;;;;;6.23;2.40;;;7.40;86.00;;;;;;2610924;47;20415;-77
2021/12/10 13:31:48;;;;;;;16.60;3.50;;;7.60;81.20;;;;;;2611892;54;20404;-76